Time;durP1;ratioP1;P1;durP2;ratioP2;P2;SDS_P1;SDS_P2;PMS_P1;PMS_P2;Temp;Humidity;BMP_temperature;BMP_pressure;BME280_temperature;BME280_humidity;BME280_pressure;Samples;Min_cycle;Max_cycle;Signal;HPM_P1;HPM_P2
2022/07/29 00:02:17;;;;;;;0.70;0.10;;;22.30;99.90;;;;;;4994404;28;20442;-71
2022/07/29 00:04:44;;;;;;;0.70;0.10;;;22.30;99.90;;;;;;4996929;28;20446;-71
2022/07/29 00:07:13;;;;;;;0.70;0.10;;;;;;;;;;4997206;28;20481;-71
2022/07/29 00:09:41;;;;;;;0.70;0.10;;;22.30;99.90;;;;;;4993807;28;20437;-71
2022/07/29 00:12:19;;;;;;;0.70;0.20;;;22.30;99.90;;;;;;4991775;28;20488;-70
2022/07/29 00:14:53;;;;;;;0.70;0.20;;;22.30;99.90;;;;;;4993417;28;20496;-71
2022/07/29 00:17:23;;;;;;;0.70;0.10;;;22.30;99.90;;;;;;4992979;28;20853;-70
2022/07/29 00:19:51;;;;;;;0.70;0.20;;;22.30;99.90;;;;;;4993194;28;20456;-71
2022/07/29 00:22:19;;;;;;;0.70;0.20;;;22.40;99.90;;;;;;4993063;28;20532;-71
2022/07/29 00:24:48;;;;;;;0.70;0.10;;;22.40;99.90;;;;;;4992871;28;20449;-70
2022/07/29 00:27:16;;;;;;;0.70;0.10;;;22.40;99.90;;;;;;4990846;28;20544;-70
2022/07/29 00:29:44;;;;;;;0.70;0.10;;;22.40;99.90;;;;;;4984848;28;20456;-70
2022/07/29 00:32:12;;;;;;;0.70;0.10;;;22.40;99.90;;;;;;4973529;28;20537;-71
2022/07/29 00:37:26;;;;;;;0.70;0.20;;;22.30;99.90;;;;;;4971895;28;20446;-70
2022/07/29 00:39:54;;;;;;;0.70;0.20;;;22.30;99.90;;;;;;4973623;28;20442;-70
2022/07/29 00:42:21;;;;;;;0.70;0.20;;;22.30;99.90;;;;;;4973754;28;20995;-70
2022/07/29 00:44:49;;;;;;;0.70;0.10;;;22.30;99.90;;;;;;4974841;28;20458;-70
2022/07/29 00:47:17;;;;;;;0.70;0.20;;;22.30;99.90;;;;;;4973472;28;20489;-70
2022/07/29 00:49:46;;;;;;;0.70;0.10;;;22.40;99.90;;;;;;4973981;28;20831;-69
2022/07/29 00:52:14;;;;;;;0.70;0.10;;;22.30;99.90;;;;;;4992594;28;20449;-70
2022/07/29 00:54:44;;;;;;;0.70;0.20;;;22.40;99.90;;;;;;4992627;28;20500;-71
2022/07/29 00:57:12;;;;;;;0.70;0.10;;;22.40;99.90;;;;;;4992450;28;20877;-71
2022/07/29 00:59:40;;;;;;;0.70;0.10;;;22.50;99.90;;;;;;4992440;28;20964;-70
2022/07/29 01:02:08;;;;;;;0.70;0.10;;;22.40;99.90;;;;;;4992294;28;20480;-70
2022/07/29 01:04:36;;;;;;;0.70;0.10;;;22.50;99.90;;;;;;4987640;28;20847;-69
2022/07/29 01:07:06;;;;;;;0.70;0.10;;;22.50;99.90;;;;;;4972644;28;21014;-71
2022/07/29 01:09:36;;;;;;;0.70;0.20;;;22.50;99.90;;;;;;4973117;28;20450;-70
2022/07/29 01:12:15;;;;;;;0.70;0.10;;;22.60;99.90;;;;;;4972666;28;20441;-70
2022/07/29 01:14:43;;;;;;;0.70;0.20;;;22.60;99.90;;;;;;4974795;28;20472;-70
2022/07/29 01:17:14;;;;;;;0.70;0.10;;;22.60;99.90;;;;;;4972858;28;20986;-70
2022/07/29 01:19:51;;;;;;;0.70;0.20;;;22.60;99.90;;;;;;4973229;28;20441;-71
2022/07/29 01:22:43;;;;;;;0.70;0.20;;;22.60;99.90;;;;;;4972891;28;20446;-71
2022/07/29 01:25:26;;;;;;;0.70;0.20;;;22.60;99.90;;;;;;4972571;28;20985;-71
2022/07/29 01:28:21;;;;;;;0.70;0.10;;;22.60;99.90;;;;;;4979658;28;20476;-71
2022/07/29 01:30:54;;;;;;;0.70;0.10;;;22.60;99.90;;;;;;4992284;28;20461;-71
2022/07/29 01:36:15;;;;;;;0.70;0.17;;;22.50;99.90;;;;;;4991742;28;20468;-71
2022/07/29 01:38:50;;;;;;;0.80;0.33;;;22.60;99.90;;;;;;4989785;28;20834;-71
2022/07/29 01:41:20;;;;;;;0.70;0.10;;;22.50;99.90;;;;;;4988876;28;20444;-71
2022/07/29 01:43:54;;;;;;;0.70;0.20;;;22.50;99.90;;;;;;4972725;28;20447;-70
2022/07/29 01:46:29;;;;;;;0.87;0.33;;;22.40;99.90;;;;;;4972038;28;20488;-70
2022/07/29 01:49:02;;;;;;;0.70;0.20;;;22.40;99.90;;;;;;4972579;28;20829;-70
2022/07/29 01:51:33;;;;;;;0.70;0.20;;;22.30;99.90;;;;;;4972583;28;20966;-70
2022/07/29 01:54:07;;;;;;;0.70;0.20;;;22.30;99.90;;;;;;4972658;28;20458;-71
2022/07/29 01:56:37;;;;;;;0.70;0.10;;;22.30;99.90;;;;;;4984269;28;20469;-70
2022/07/29 01:59:07;;;;;;;0.70;0.20;;;22.30;99.90;;;;;;4992231;28;20445;-70
2022/07/29 02:01:38;;;;;;;0.70;0.20;;;22.30;99.90;;;;;;4991985;28;20473;-71
2022/07/29 02:04:09;;;;;;;0.70;0.10;;;22.20;99.90;;;;;;4991935;28;20449;-70
2022/07/29 02:06:40;;;;;;;0.70;0.10;;;22.20;99.90;;;;;;4991483;28;20476;-70
2022/07/29 02:09:10;;;;;;;0.70;0.23;;;22.20;99.90;;;;;;4990890;28;20473;-71
2022/07/29 02:11:39;;;;;;;0.70;0.20;;;22.20;99.90;;;;;;4991856;28;20449;-70
2022/07/29 02:14:08;;;;;;;2.40;2.10;;;22.10;99.90;;;;;;4977609;28;20809;-70
2022/07/29 02:16:40;;;;;;;0.70;0.10;;;22.10;99.90;;;;;;4972106;28;20466;-71
2022/07/29 02:19:10;;;;;;;0.70;0.20;;;22.10;99.90;;;;;;4972132;28;20457;-70
2022/07/29 02:21:39;;;;;;;0.70;0.13;;;22.10;99.90;;;;;;4972360;28;20955;-70
2022/07/29 02:24:09;;;;;;;0.70;0.10;;;22.10;99.90;;;;;;4974299;28;20450;-70
2022/07/29 02:26:39;;;;;;;0.70;0.10;;;22.00;99.90;;;;;;4977249;28;20495;-70
2022/07/29 02:29:09;;;;;;;0.70;0.20;;;22.00;99.90;;;;;;4988492;28;20456;-69
2022/07/29 02:31:39;;;;;;;0.70;0.20;;;22.80;99.90;;;;;;4995013;28;20874;-70
2022/07/29 02:34:10;;;;;;;0.70;0.10;;;21.80;99.90;;;;;;4995329;28;20460;-70
2022/07/29 02:36:39;;;;;;;0.90;0.63;;;21.70;99.90;;;;;;4994940;28;20495;-72
2022/07/29 02:39:08;;;;;;;0.70;0.20;;;21.70;99.90;;;;;;4995061;28;20449;-71
2022/07/29 02:41:42;;;;;;;0.70;0.10;;;21.70;99.90;;;;;;4994537;28;20513;-71
2022/07/29 02:44:12;;;;;;;0.70;0.10;;;21.70;99.90;;;;;;4994838;28;20448;-71
2022/07/29 02:46:49;;;;;;;0.70;0.20;;;21.60;99.90;;;;;;4994847;28;20485;-71
2022/07/29 02:49:25;;;;;;;0.70;0.20;;;21.60;99.90;;;;;;4994913;28;20449;-70
2022/07/29 02:51:56;;;;;;;0.70;0.10;;;21.60;99.90;;;;;;4998462;28;20449;-70
2022/07/29 02:54:30;;;;;;;0.70;0.10;;;21.60;99.90;;;;;;4996866;28;20452;-71
2022/07/29 02:57:01;;;;;;;4.50;2.83;;;21.50;99.90;;;;;;4976237;28;20478;-71
2022/07/29 02:59:31;;;;;;;0.70;0.20;;;21.50;99.90;;;;;;4975844;28;20550;-71
2022/07/29 03:02:03;;;;;;;0.70;0.10;;;21.50;99.90;;;;;;4975673;28;20453;-71
2022/07/29 03:04:33;;;;;;;0.70;0.10;;;21.40;99.90;;;;;;4975336;28;20533;-71
2022/07/29 03:07:02;;;;;;;0.70;0.20;;;21.40;99.90;;;;;;4975217;28;20489;-71
2022/07/29 03:09:31;;;;;;;0.70;0.20;;;21.30;99.90;;;;;;4983695;28;20460;-71
2022/07/29 03:11:59;;;;;;;0.70;0.17;;;21.40;99.90;;;;;;4994579;28;20446;-71
2022/07/29 03:14:28;;;;;;;0.70;0.20;;;21.30;99.90;;;;;;4994421;28;20793;-71
2022/07/29 03:16:57;;;;;;;0.70;0.10;;;21.30;99.90;;;;;;4994317;28;20465;-72
2022/07/29 03:19:27;;;;;;;1.90;1.80;;;21.30;99.90;;;;;;4994368;28;20449;-71
2022/07/29 03:21:57;;;;;;;0.90;0.20;;;21.30;99.90;;;;;;4994180;28;20445;-70
2022/07/29 03:24:27;;;;;;;0.70;0.17;;;21.30;99.90;;;;;;4977595;28;20538;-71
2022/07/29 03:26:56;;;;;;;0.70;0.13;;;21.30;99.90;;;;;;4974542;28;20872;-71
2022/07/29 03:29:24;;;;;;;0.70;0.10;;;21.30;99.90;;;;;;4989423;28;20450;-70
2022/07/29 03:32:02;;;;;;;2.00;1.90;;;21.30;99.90;;;;;;4994211;28;20441;-71
2022/07/29 03:34:32;;;;;;;0.70;0.20;;;21.20;99.90;;;;;;4994179;28;20504;-71
2022/07/29 03:37:00;;;;;;;0.80;0.53;;;21.10;99.90;;;;;;4993365;28;20473;-71
2022/07/29 03:39:32;;;;;;;0.70;0.10;;;21.20;99.90;;;;;;4993707;28;20442;-71
2022/07/29 03:42:01;;;;;;;0.70;0.33;;;21.20;99.90;;;;;;4993752;28;20914;-71
2022/07/29 03:44:30;;;;;;;0.70;0.30;;;21.20;99.90;;;;;;4993755;28;20539;-70
2022/07/29 03:47:01;;;;;;;0.70;0.20;;;21.10;99.90;;;;;;4993666;28;20477;-72
2022/07/29 03:49:33;;;;;;;0.70;0.20;;;21.00;99.90;;;;;;4993976;28;20446;-72
2022/07/29 03:52:01;;;;;;;0.70;0.20;;;20.90;99.90;;;;;;4980263;28;20830;-71
2022/07/29 03:54:29;;;;;;;0.70;0.20;;;20.80;99.90;;;;;;4974242;28;20452;-71
2022/07/29 03:57:00;;;;;;;0.70;0.20;;;20.90;99.90;;;;;;4973988;28;20470;-72
2022/07/29 03:59:28;;;;;;;0.70;0.10;;;20.80;99.90;;;;;;4974087;28;20458;-71
2022/07/29 04:01:57;;;;;;;0.70;0.20;;;20.80;99.90;;;;;;4974911;28;20454;-71
2022/07/29 04:04:26;;;;;;;0.70;0.20;;;20.70;99.90;;;;;;4974871;28;20509;-71
2022/07/29 04:06:56;;;;;;;0.70;0.20;;;20.70;99.90;;;;;;4993278;28;20477;-71
2022/07/29 04:09:24;;;;;;;0.70;0.10;;;20.70;99.90;;;;;;4993659;28;21214;-71
2022/07/29 04:11:53;;;;;;;0.70;0.20;;;20.60;99.90;;;;;;4993567;28;20968;-71
2022/07/29 04:14:31;;;;;;;0.70;0.20;;;20.40;99.90;;;;;;4993576;28;20499;-72
2022/07/29 04:16:59;;;;;;;0.70;0.10;;;20.50;99.90;;;;;;4993574;28;20470;-71
2022/07/29 04:19:27;;;;;;;0.70;0.20;;;20.40;99.90;;;;;;4984415;28;20454;-71
2022/07/29 04:21:56;;;;;;;1.07;0.60;;;20.40;99.90;;;;;;4973909;28;20465;-71
2022/07/29 04:24:24;;;;;;;0.70;0.10;;;20.40;99.90;;;;;;4974128;28;20446;-70
2022/07/29 04:26:53;;;;;;;0.70;0.10;;;20.40;99.90;;;;;;4973681;28;20561;-72
2022/07/29 04:29:21;;;;;;;0.70;0.10;;;20.40;99.90;;;;;;4986757;28;20500;-72
2022/07/29 04:31:48;;;;;;;0.70;0.20;;;20.00;99.90;;;;;;4985838;28;20449;-71
2022/07/29 04:34:16;;;;;;;0.70;0.20;;;20.40;99.90;;;;;;4992659;28;20460;-71
2022/07/29 04:36:45;;;;;;;0.70;0.10;;;20.40;99.90;;;;;;4989119;28;20501;-70
2022/07/29 04:39:14;;;;;;;0.70;0.20;;;20.40;99.90;;;;;;4993048;28;20445;-71
2022/07/29 04:41:49;;;;;;;0.70;0.10;;;20.40;99.90;;;;;;4985856;28;20495;-71
2022/07/29 04:44:19;;;;;;;0.70;0.23;;;20.40;99.90;;;;;;4993575;28;20442;-71
2022/07/29 04:46:47;;;;;;;0.70;0.10;;;20.40;99.90;;;;;;4992616;28;20469;-71
2022/07/29 04:49:15;;;;;;;0.70;0.20;;;20.40;99.90;;;;;;4993716;28;20539;-72
2022/07/29 04:51:43;;;;;;;0.70;0.10;;;20.40;99.90;;;;;;4983810;28;20459;-72
2022/07/29 04:54:11;;;;;;;0.70;0.20;;;20.50;99.90;;;;;;4974351;28;20532;-71
2022/07/29 04:56:41;;;;;;;0.70;0.10;;;20.50;99.90;;;;;;4975830;28;20470;-71
2022/07/29 04:59:09;;;;;;;0.70;0.10;;;;;;;;;;4992997;28;20441;-71
2022/07/29 05:01:39;;;;;;;0.70;0.10;;;20.50;99.90;;;;;;4993513;28;20812;-71
2022/07/29 05:04:07;;;;;;;0.70;0.10;;;20.60;99.90;;;;;;4984406;28;20479;-70
2022/07/29 05:06:35;;;;;;;0.70;0.10;;;20.60;99.90;;;;;;4974110;28;20474;-71
2022/07/29 05:09:03;;;;;;;0.70;0.30;;;20.70;99.90;;;;;;4974179;28;20486;-71
2022/07/29 05:11:31;;;;;;;0.70;0.23;;;20.70;99.90;;;;;;4973895;28;20445;-73
2022/07/29 05:14:00;;;;;;;0.70;0.10;;;20.70;99.90;;;;;;4973834;28;20445;-70
2022/07/29 05:16:30;;;;;;;0.70;0.20;;;;;;;;;;4975821;28;20986;-71
2022/07/29 05:19:03;;;;;;;0.70;0.13;;;;;;;;;;4993965;28;20477;-71
2022/07/29 05:21:39;;;;;;;0.70;0.10;;;;;;;;;;4994057;28;20453;-71
2022/07/29 05:24:08;;;;;;;0.70;0.10;;;;;;;;;;4993518;28;20457;-71
2022/07/29 05:26:39;;;;;;;0.70;0.20;;;;;;;;;;4993473;28;20534;-72
2022/07/29 05:29:10;;;;;;;0.97;0.30;;;;;;;;;;4993772;28;20484;-71
2022/07/29 05:31:59;;;;;;;0.70;0.20;;;;;;;;;;4991102;28;20545;-69
2022/07/29 05:34:28;;;;;;;0.70;0.10;;;21.10;99.90;;;;;;4975635;28;20454;-74
2022/07/29 05:36:56;;;;;;;0.70;0.10;;;21.10;99.90;;;;;;4986931;28;20623;-73
2022/07/29 05:39:24;;;;;;;0.70;0.10;;;21.20;99.90;;;;;;4993788;28;20457;-71
2022/07/29 05:42:12;;;;;;;0.70;0.10;;;21.20;99.90;;;;;;4975644;28;20445;-71
2022/07/29 05:44:41;;;;;;;0.70;0.10;;;21.30;99.90;;;;;;4983847;28;20931;-73
2022/07/29 05:47:09;;;;;;;0.70;0.20;;;21.30;99.90;;;;;;4997107;28;20529;-71
2022/07/29 05:49:37;;;;;;;0.70;0.10;;;21.20;99.90;;;;;;4994031;28;21286;-72
2022/07/29 05:52:05;;;;;;;0.70;0.10;;;21.20;99.90;;;;;;4993403;28;20449;-71
2022/07/29 05:54:33;;;;;;;0.70;0.20;;;21.20;99.90;;;;;;4993377;28;20452;-70
2022/07/29 05:57:01;;;;;;;0.70;0.10;;;21.20;99.90;;;;;;4994239;28;20552;-71
2022/07/29 05:59:29;;;;;;;0.70;0.20;;;21.20;99.90;;;;;;4997511;28;20456;-71
2022/07/29 06:01:59;;;;;;;0.70;0.10;;;21.20;99.90;;;;;;4996796;28;20471;-74
2022/07/29 06:04:27;;;;;;;0.70;0.20;;;21.20;99.90;;;;;;4987824;28;20442;-69
2022/07/29 06:06:55;;;;;;;0.67;0.20;;;21.30;99.90;;;;;;4993282;28;20461;-69
2022/07/29 06:09:23;;;;;;;0.70;0.10;;;21.30;99.90;;;;;;4985527;28;20469;-70
2022/07/29 06:11:51;;;;;;;0.70;0.10;;;21.30;99.90;;;;;;4986168;28;20446;-69
2022/07/29 06:14:20;;;;;;;0.70;0.20;;;21.30;99.90;;;;;;4979922;28;20450;-68
2022/07/29 06:16:47;;;;;;;0.70;0.10;;;21.40;99.90;;;;;;4977352;28;20496;-70
2022/07/29 06:19:17;;;;;;;0.70;0.20;;;21.40;99.90;;;;;;4977064;28;20885;-69
2022/07/29 06:21:46;;;;;;;0.70;0.13;;;21.40;99.90;;;;;;4977579;28;20450;-70
2022/07/29 06:24:14;;;;;;;0.70;0.10;;;21.50;99.90;;;;;;4996586;28;20445;-70
2022/07/29 06:26:43;;;;;;;0.70;0.20;;;21.50;99.90;;;;;;4996984;28;20911;-71
2022/07/29 06:29:11;;;;;;;0.70;0.10;;;21.50;99.90;;;;;;4996916;28;20484;-70
2022/07/29 06:31:40;;;;;;;0.70;0.10;;;21.60;99.90;;;;;;4997750;28;20453;-70
2022/07/29 06:34:08;;;;;;;2.20;0.77;;;21.60;99.90;;;;;;4998838;28;20453;-69
2022/07/29 06:36:38;;;;;;;0.70;0.20;;;21.60;99.90;;;;;;4990743;28;20480;-69
2022/07/29 06:39:08;;;;;;;0.70;0.17;;;21.60;99.90;;;;;;4980421;28;20509;-69
2022/07/29 06:41:38;;;;;;;0.70;0.13;;;21.70;99.90;;;;;;4977807;28;20899;-68
2022/07/29 06:44:06;;;;;;;0.70;0.10;;;21.70;99.90;;;;;;4978667;28;20461;-70
2022/07/29 06:46:34;;;;;;;0.70;0.10;;;21.90;99.90;;;;;;4977730;28;20476;-69
2022/07/29 06:49:02;;;;;;;0.70;0.10;;;21.90;99.90;;;;;;4978661;28;20978;-69
2022/07/29 06:51:30;;;;;;;1.07;0.70;;;22.00;99.90;;;;;;4991350;28;20463;-70
2022/07/29 06:54:00;;;;;;;0.70;0.10;;;22.00;99.90;;;;;;4975462;28;20450;-69
2022/07/29 06:56:31;;;;;;;0.70;0.10;;;22.00;99.90;;;;;;4974192;28;20557;-69
2022/07/29 06:59:06;;;;;;;0.70;0.20;;;22.00;99.90;;;;;;4975386;28;20465;-69
2022/07/29 07:01:33;;;;;;;0.70;0.20;;;22.00;99.90;;;;;;4975049;28;20920;-70
2022/07/29 07:04:01;;;;;;;0.70;0.10;;;22.00;99.90;;;;;;4975418;28;20454;-70
2022/07/29 07:06:30;;;;;;;0.70;0.20;;;22.20;99.90;;;;;;4980832;28;20480;-69
2022/07/29 07:08:57;;;;;;;9.33;3.27;;;22.20;99.90;;;;;;4974339;28;20490;-70
2022/07/29 07:11:27;;;;;;;0.70;0.20;;;22.20;99.90;;;;;;4975293;28;20457;-69
2022/07/29 07:13:55;;;;;;;0.70;0.10;;;22.20;99.90;;;;;;4975188;28;20442;-68
2022/07/29 07:16:29;;;;;;;0.70;0.20;;;22.20;99.90;;;;;;4974929;28;20886;-69
2022/07/29 07:18:57;;;;;;;0.70;0.10;;;22.20;99.90;;;;;;4975057;28;20635;-69
2022/07/29 07:21:25;;;;;;;0.90;0.37;;;22.20;99.90;;;;;;4991750;28;20460;-69
2022/07/29 07:23:57;;;;;;;0.70;0.10;;;22.40;99.90;;;;;;4994760;28;20468;-70
2022/07/29 07:26:25;;;;;;;0.70;0.20;;;22.40;99.90;;;;;;4993961;28;21265;-69
2022/07/29 07:28:54;;;;;;;0.70;0.20;;;22.40;99.90;;;;;;4994107;28;20460;-70
2022/07/29 07:31:22;;;;;;;0.70;0.20;;;22.50;99.90;;;;;;4994369;28;20434;-69
2022/07/29 07:33:51;;;;;;;0.70;0.20;;;22.60;99.90;;;;;;4994323;28;20471;-70
2022/07/29 07:36:19;;;;;;;0.70;0.20;;;22.70;99.90;;;;;;4989685;28;20478;-70
2022/07/29 07:38:47;;;;;;;0.90;0.43;;;22.80;99.90;;;;;;4978755;28;20434;-70
2022/07/29 07:41:15;;;;;;;0.70;0.10;;;22.80;99.90;;;;;;4986919;28;20465;-69
2022/07/29 07:43:43;;;;;;;0.70;0.10;;;22.90;99.90;;;;;;4988928;28;20452;-70
2022/07/29 07:46:12;;;;;;;0.70;0.13;;;23.00;99.90;;;;;;4994004;28;20548;-70
2022/07/29 07:48:40;;;;;;;0.70;0.20;;;23.00;99.90;;;;;;4993965;28;20790;-69
2022/07/29 07:51:08;;;;;;;0.70;0.10;;;23.10;99.90;;;;;;4993642;28;20567;-70
2022/07/29 07:53:36;;;;;;;0.70;0.20;;;23.20;99.90;;;;;;4991748;28;20462;-69
2022/07/29 07:56:06;;;;;;;0.80;0.30;;;23.30;99.90;;;;;;4979179;28;20493;-69
2022/07/29 07:58:38;;;;;;;0.70;0.20;;;23.40;99.90;;;;;;4974223;28;20450;-70
2022/07/29 08:01:06;;;;;;;0.80;0.57;;;23.40;99.90;;;;;;4976679;28;20468;-70
2022/07/29 08:03:36;;;;;;;0.70;0.10;;;23.50;99.90;;;;;;4986249;28;20445;-71
2022/07/29 08:06:04;;;;;;;0.70;0.10;;;23.60;99.90;;;;;;4983731;28;20801;-71
2022/07/29 08:08:32;;;;;;;0.70;0.10;;;23.60;99.90;;;;;;4993596;28;20541;-69
2022/07/29 08:11:01;;;;;;;0.70;0.10;;;23.60;99.90;;;;;;4992315;28;20473;-69
2022/07/29 08:13:36;;;;;;;2.80;0.67;;;23.60;99.90;;;;;;4985861;28;20472;-69
2022/07/29 08:16:12;;;;;;;0.70;0.20;;;23.60;99.90;;;;;;4993537;28;20476;-70
2022/07/29 08:18:42;;;;;;;0.70;0.20;;;23.70;99.90;;;;;;4993078;28;20568;-69
2022/07/29 08:21:10;;;;;;;0.70;0.10;;;23.70;99.90;;;;;;4992339;28;20441;-69
2022/07/29 08:23:47;;;;;;;1.23;0.80;;;;;;;;;;4992655;28;20465;-70
2022/07/29 08:26:25;;;;;;;0.70;0.20;;;23.90;99.90;;;;;;4992199;28;20481;-70
2022/07/29 08:28:53;;;;;;;0.70;0.10;;;23.90;99.90;;;;;;4993076;28;20488;-69
2022/07/29 08:31:21;;;;;;;0.70;0.10;;;24.00;99.90;;;;;;4994031;28;20568;-70
2022/07/29 08:33:51;;;;;;;0.70;0.10;;;24.00;99.90;;;;;;4996796;28;20545;-69
2022/07/29 08:36:20;;;;;;;0.70;0.10;;;24.10;99.90;;;;;;4996283;28;20467;-69
2022/07/29 08:38:49;;;;;;;0.70;0.20;;;24.20;99.90;;;;;;4994536;28;20449;-69
2022/07/29 08:41:18;;;;;;;0.70;0.20;;;24.20;99.90;;;;;;4994977;28;20442;-70
2022/07/29 08:43:47;;;;;;;0.70;0.10;;;24.20;99.90;;;;;;4994841;28;20957;-70
2022/07/29 08:46:16;;;;;;;0.70;0.10;;;24.30;99.90;;;;;;4996857;28;20461;-69
2022/07/29 08:48:45;;;;;;;0.70;0.10;;;24.30;99.90;;;;;;4995176;28;20568;-69
2022/07/29 08:51:16;;;;;;;0.70;0.10;;;27.10;99.90;;;;;;4993562;28;20473;-69
2022/07/29 08:53:47;;;;;;;0.70;0.20;;;24.30;99.90;;;;;;4993467;28;20468;-70
2022/07/29 08:56:16;;;;;;;0.70;0.10;;;24.40;99.90;;;;;;4993234;28;20473;-70
2022/07/29 08:58:45;;;;;;;0.70;0.20;;;24.40;99.90;;;;;;4992188;28;20874;-69
2022/07/29 09:01:24;;;;;;;0.70;0.10;;;24.70;99.90;;;;;;4993545;28;20471;-70
2022/07/29 09:04:06;;;;;;;0.70;0.20;;;24.70;99.90;;;;;;4992844;28;20473;-69
2022/07/29 09:06:40;;;;;;;0.70;0.20;;;24.90;99.90;;;;;;4992348;28;20548;-69
2022/07/29 09:09:08;;;;;;;3.13;1.90;;;24.90;99.90;;;;;;4992082;28;20445;-71
2022/07/29 09:11:37;;;;;;;0.70;0.20;;;25.00;99.90;;;;;;4975946;28;20482;-69
2022/07/29 09:14:05;;;;;;;1.33;1.20;;;25.10;99.90;;;;;;4992637;28;20477;-71
2022/07/29 09:16:52;;;;;;;0.70;0.20;;;25.20;99.90;;;;;;4992203;28;20551;-71
2022/07/29 09:19:23;;;;;;;0.80;0.33;;;25.30;99.90;;;;;;4992556;28;20441;-68
2022/07/29 09:21:59;;;;;;;0.70;0.10;;;;;;;;;;4992043;28;20832;-68
2022/07/29 09:24:38;;;;;;;6.83;6.53;;;25.30;99.90;;;;;;4991702;28;20471;-68
2022/07/29 09:27:20;;;;;;;0.70;0.10;;;25.40;99.90;;;;;;4991734;28;20469;-71
2022/07/29 09:29:48;;;;;;;0.70;0.10;;;25.40;99.90;;;;;;4992331;28;20437;-69
2022/07/29 09:32:16;;;;;;;0.70;0.10;;;25.50;99.90;;;;;;4992893;28;20496;-70
2022/07/29 09:34:44;;;;;;;4.20;1.27;;;25.50;99.90;;;;;;4996299;28;20449;-69
2022/07/29 09:37:27;;;;;;;0.70;0.10;;;25.60;99.90;;;;;;4995886;28;20465;-70
2022/07/29 09:39:55;;;;;;;0.70;0.10;;;25.70;99.90;;;;;;4995544;28;20972;-70
2022/07/29 09:42:29;;;;;;;0.70;0.10;;;25.70;99.90;;;;;;4985519;28;20453;-69
2022/07/29 09:44:57;;;;;;;0.70;0.10;;;25.80;99.90;;;;;;4995698;28;20449;-69
2022/07/29 09:47:42;;;;;;;0.70;0.20;;;25.80;99.90;;;;;;4995800;28;20465;-69
2022/07/29 09:50:10;;;;;;;0.80;0.60;;;25.80;99.90;;;;;;4995934;28;20543;-70
2022/07/29 09:52:47;;;;;;;1.13;1.03;;;26.00;99.90;;;;;;4995765;28;20467;-70
2022/07/29 09:55:15;;;;;;;0.70;0.20;;;26.10;99.90;;;;;;4995618;28;20441;-70
2022/07/29 09:57:46;;;;;;;0.70;0.10;;;26.10;99.90;;;;;;4984766;28;20527;-69
2022/07/29 10:00:16;;;;;;;0.70;0.10;;;26.20;99.90;;;;;;4976167;28;20771;-69
2022/07/29 10:02:45;;;;;;;0.70;0.20;;;26.20;99.90;;;;;;4976212;28;20446;-70
2022/07/29 10:05:21;;;;;;;0.70;0.20;;;26.20;99.90;;;;;;4976207;28;20567;-70
2022/07/29 10:07:54;;;;;;;0.90;0.60;;;26.30;99.90;;;;;;4975869;28;20930;-70
2022/07/29 10:10:27;;;;;;;0.70;0.20;;;26.20;99.90;;;;;;4976529;28;20449;-69
2022/07/29 10:12:57;;;;;;;0.70;0.20;;;26.40;99.90;;;;;;4977238;28;20461;-69
2022/07/29 10:15:37;;;;;;;0.70;0.10;;;26.50;99.90;;;;;;4976011;28;20470;-70
2022/07/29 10:18:05;;;;;;;0.70;0.10;;;26.50;99.90;;;;;;4985929;28;20445;-70
2022/07/29 10:20:33;;;;;;;0.70;0.20;;;26.50;99.90;;;;;;4995273;28;20438;-71
2022/07/29 10:23:03;;;;;;;0.70;0.20;;;26.60;99.90;;;;;;4995451;28;20442;-71
2022/07/29 10:25:31;;;;;;;0.70;0.10;;;26.70;99.90;;;;;;4994983;28;20471;-71
2022/07/29 10:28:00;;;;;;;0.70;0.20;;;26.70;99.90;;;;;;4995138;28;20441;-71
2022/07/29 10:30:28;;;;;;;0.70;0.20;;;26.70;99.90;;;;;;4994420;28;20460;-69
2022/07/29 10:33:18;;;;;;;0.70;0.10;;;26.90;99.90;;;;;;4995052;28;20450;-70
2022/07/29 10:36:00;;;;;;;0.70;0.20;;;27.20;99.90;;;;;;4994969;28;20989;-70
2022/07/29 10:38:45;;;;;;;0.70;0.20;;;27.30;99.90;;;;;;4994761;28;20448;-70
2022/07/29 10:41:38;;;;;;;0.70;0.20;;;27.30;99.90;;;;;;4994769;28;20503;-71
2022/07/29 10:44:17;;;;;;;0.70;0.30;;;27.30;99.90;;;;;;4994256;28;20463;-71
2022/07/29 10:46:47;;;;;;;0.70;0.10;;;27.50;99.90;;;;;;4993152;28;20848;-68
2022/07/29 10:49:19;;;;;;;0.70;0.10;;;27.60;99.90;;;;;;4994820;28;20625;-70
2022/07/29 10:51:59;;;;;;;0.70;0.20;;;27.70;99.90;;;;;;4994603;28;20492;-69
2022/07/29 10:54:50;;;;;;;1.17;0.73;;;27.80;99.90;;;;;;4994252;28;20441;-70
2022/07/29 10:57:21;;;;;;;0.70;0.20;;;27.80;99.90;;;;;;4994474;28;20468;-70
2022/07/29 11:00:31;;;;;;;0.70;0.10;;;27.70;99.90;;;;;;4994553;28;20453;-70
2022/07/29 11:03:00;;;;;;;0.70;0.20;;;27.70;99.90;;;;;;4993866;28;20445;-70
2022/07/29 11:05:56;;;;;;;0.70;0.10;;;27.70;99.90;;;;;;4985487;28;20462;-69
2022/07/29 11:08:27;;;;;;;1.00;0.20;;;27.70;99.90;;;;;;4974564;28;20505;-69
2022/07/29 11:11:36;;;;;;;2.20;1.40;;;27.80;99.90;;;;;;4975384;28;20505;-69
2022/07/29 11:14:06;;;;;;;0.73;0.20;;;27.70;99.90;;;;;;4973901;28;20833;-70
2022/07/29 11:17:05;;;;;;;0.70;0.10;;;27.60;99.90;;;;;;4974368;28;20466;-70
2022/07/29 11:19:35;;;;;;;0.70;0.17;;;27.60;99.90;;;;;;4983853;28;20468;-70
2022/07/29 11:22:09;;;;;;;0.70;0.20;;;27.70;99.90;;;;;;4995071;28;20440;-70
2022/07/29 11:24:38;;;;;;;0.70;0.20;;;27.80;99.90;;;;;;4986885;28;20552;-70
2022/07/29 11:27:19;;;;;;;0.70;0.10;;;27.90;99.90;;;;;;4993757;28;20859;-69
2022/07/29 11:29:54;;;;;;;0.70;0.10;;;28.00;99.90;;;;;;4994135;28;20527;-70
2022/07/29 11:32:24;;;;;;;0.70;0.10;;;28.00;99.90;;;;;;4997697;28;20531;-69
2022/07/29 11:35:14;;;;;;;0.70;0.20;;;28.00;99.90;;;;;;4990164;28;20450;-71
2022/07/29 11:37:46;;;;;;;0.70;0.20;;;28.00;99.90;;;;;;4988782;28;21001;-69
2022/07/29 11:40:24;;;;;;;0.70;0.10;;;28.00;99.90;;;;;;4993888;28;21036;-70
2022/07/29 11:42:52;;;;;;;0.70;0.20;;;28.00;99.90;;;;;;4994407;28;20453;-70
2022/07/29 11:45:31;;;;;;;0.70;0.17;;;28.20;99.90;;;;;;4993833;28;20465;-69
2022/07/29 11:48:17;;;;;;;0.70;0.20;;;28.30;99.90;;;;;;4984565;28;20456;-69
2022/07/29 11:51:00;;;;;;;0.70;0.10;;;28.30;99.90;;;;;;4987712;28;20930;-69
2022/07/29 11:53:30;;;;;;;0.70;0.10;;;28.30;99.90;;;;;;4993659;28;20481;-69
2022/07/29 11:56:01;;;;;;;1.30;1.20;;;28.40;99.90;;;;;;4992818;28;20465;-69
2022/07/29 11:58:30;;;;;;;0.70;0.10;;;28.50;99.90;;;;;;4988911;28;20537;-69
2022/07/29 12:01:00;;;;;;;0.70;0.20;;;28.50;99.90;;;;;;4984597;28;20817;-70
2022/07/29 12:03:32;;;;;;;0.70;0.10;;;28.70;99.90;;;;;;4974190;28;20457;-70
2022/07/29 12:06:03;;;;;;;0.70;0.10;;;26.60;99.90;;;;;;4979426;28;20537;-72
2022/07/29 12:08:41;;;;;;;0.70;0.20;;;28.90;99.90;;;;;;4982344;28;20498;-71
2022/07/29 12:11:17;;;;;;;1.03;0.80;;;28.90;99.90;;;;;;4983774;28;20460;-70
2022/07/29 12:13:47;;;;;;;0.70;0.20;;;29.10;99.90;;;;;;4993319;28;20468;-70
2022/07/29 12:16:17;;;;;;;0.70;0.10;;;29.10;99.90;;;;;;4978799;28;20469;-70
2022/07/29 12:18:58;;;;;;;0.70;0.20;;;29.10;99.90;;;;;;4985868;28;20437;-70
2022/07/29 12:21:26;;;;;;;0.70;0.20;;;29.20;99.90;;;;;;4987547;28;20477;-73
2022/07/29 12:23:58;;;;;;;0.70;0.10;;;29.20;99.90;;;;;;4988353;28;20501;-72
2022/07/29 12:26:36;;;;;;;0.70;0.10;;;29.10;99.90;;;;;;4981762;28;20591;-73
2022/07/29 12:29:04;;;;;;;0.70;0.10;;;;;;;;;;4983609;28;20460;-72
2022/07/29 12:31:44;;;;;;;0.70;0.10;;;28.90;99.90;;;;;;4981143;28;20456;-72
2022/07/29 12:34:13;;;;;;;0.70;0.30;;;28.80;99.90;;;;;;4979770;28;20542;-71
2022/07/29 12:36:42;;;;;;;0.70;0.10;;;;;;;;;;4989691;28;20488;-70
2022/07/29 12:39:11;;;;;;;0.70;0.20;;;28.90;99.90;;;;;;4992890;28;20453;-71
2022/07/29 12:41:40;;;;;;;0.70;0.20;;;28.90;99.90;;;;;;4992509;28;20450;-71
2022/07/29 12:44:08;;;;;;;0.70;0.10;;;29.00;99.90;;;;;;4981637;28;20450;-71
2022/07/29 12:46:36;;;;;;;0.80;0.40;;;27.10;99.90;;;;;;4978015;28;20476;-72
2022/07/29 12:49:07;;;;;;;0.70;0.20;;;29.30;99.90;;;;;;4992267;28;20460;-71
2022/07/29 12:51:38;;;;;;;0.80;0.40;;;29.20;99.90;;;;;;4992676;28;20508;-71
2022/07/29 12:54:10;;;;;;;0.70;0.20;;;29.30;99.90;;;;;;4992490;28;20433;-70
2022/07/29 12:56:38;;;;;;;0.70;0.10;;;29.40;99.90;;;;;;4992502;28;20462;-71
2022/07/29 12:59:16;;;;;;;1.00;0.73;;;29.40;99.90;;;;;;4991773;28;20442;-72
2022/07/29 13:01:44;;;;;;;0.70;0.20;;;29.60;99.90;;;;;;4973205;28;20446;-71
2022/07/29 13:04:25;;;;;;;0.70;0.20;;;29.60;99.90;;;;;;4973104;28;20449;-71
2022/07/29 13:07:00;;;;;;;0.70;0.20;;;29.60;99.90;;;;;;4972155;28;20466;-70
2022/07/29 13:09:38;;;;;;;0.70;0.20;;;29.60;99.90;;;;;;4982726;28;20573;-70
2022/07/29 13:12:09;;;;;;;0.70;0.10;;;29.70;99.90;;;;;;4975655;28;20440;-71
2022/07/29 13:14:39;;;;;;;0.70;0.20;;;29.70;99.90;;;;;;4992035;28;20450;-71
2022/07/29 13:17:09;;;;;;;0.90;0.20;;;29.80;99.90;;;;;;4980530;28;20507;-71
2022/07/29 13:19:41;;;;;;;0.70;0.10;;;29.80;99.90;;;;;;4973666;28;20457;-71